EDDM/MUC METAR and TAF weather

Enter ICAO airport designator
Station Type Date Time Source
EDDM METAR 2019/11/21 03:20 UTC NOAA

EDDM 210320Z VRB02KT 3000 -RA BR FEW002 BKN004 02/02 Q1010 NOSIG


Station Type Date Time Source
EDDM Decoded METAR 2019/11/21 03:20 UTC NOAA

Munchen, Germany (EDDM) 48-21N 011-47E
Nov 20, 2019 - 10:20 PM EST / 2019.11.21 0320 UTC
Wind: Variable at 2 MPH (2 KT):0
Visibility: 1 mile(s):0
Sky conditions: mostly cloudy
Weather: light rain; mist
Temperature: 35 F (2 C)
Dew Point: 35 F (2 C)
Relative Humidity: 100%
Pressure (altimeter): 29.83 in. Hg (1010 hPa)
ob: EDDM 210320Z VRB02KT 3000 -RA BR FEW002 BKN004 02/02 Q1010 NOSIG
cycle: 3

Station Type Date Time Source
EDDM TAF 2019/11/20 18:27 UTC NOAA

TAF EDDM 201700Z 2018/2124 VRB03KT 7000 OVC006
BECMG 2022/2024 3500 BR
TEMPO 2022/2108 2500 -RA BR OVC004
BECMG 2108/2110 9000 BKN012
TEMPO 2110/2119 SCT012
BECMG 2119/2121 BKN008 PROB30
TEMPO 2121/2124 BKN004

Example: see airport list